createdAt,value
2022-11-12T00:00:55.732Z,100
2022-11-12T00:01:55.796Z,100
2022-11-12T00:02:55.741Z,100
2022-11-12T00:03:55.733Z,100
2022-11-12T00:04:55.740Z,100
2022-11-12T00:05:55.738Z,100
2022-11-12T00:06:55.810Z,100
2022-11-12T00:07:55.745Z,100
2022-11-12T00:08:55.732Z,100
2022-11-12T00:09:55.740Z,100
2022-11-12T00:10:55.737Z,100
2022-11-12T00:11:55.738Z,100
2022-11-12T00:12:55.736Z,100
2022-11-12T00:13:55.734Z,100
2022-11-12T00:15:55.744Z,100
2022-11-12T00:16:55.742Z,100
2022-11-12T00:17:55.736Z,100
2022-11-12T00:18:55.730Z,100
2022-11-12T00:19:55.782Z,100
2022-11-12T00:20:55.730Z,100
2022-11-12T00:21:55.857Z,100
2022-11-12T00:22:55.739Z,100
2022-11-12T00:23:55.734Z,100
2022-11-12T00:24:55.749Z,100
2022-11-12T00:26:55.739Z,100
2022-11-12T00:27:55.727Z,100
2022-11-12T00:28:55.744Z,100
2022-11-12T00:29:55.737Z,100
2022-11-12T00:31:55.730Z,100
2022-11-12T00:32:55.734Z,100
2022-11-12T00:34:55.741Z,100
2022-11-12T00:35:55.750Z,100
2022-11-12T00:36:55.728Z,100
2022-11-12T00:37:55.739Z,100
2022-11-12T00:38:55.737Z,100
2022-11-12T00:39:55.746Z,100
2022-11-12T00:40:55.731Z,100
2022-11-12T00:41:55.730Z,100
2022-11-12T00:42:55.731Z,100
2022-11-12T00:43:55.734Z,100
2022-11-12T00:44:55.739Z,100
2022-11-12T00:45:55.731Z,100
2022-11-12T00:47:55.740Z,100
2022-11-12T00:48:55.734Z,100
2022-11-12T00:49:55.737Z,100
2022-11-12T00:50:55.740Z,100
2022-11-12T00:51:55.736Z,100
2022-11-12T00:52:55.868Z,100
2022-11-12T00:53:55.740Z,100
2022-11-12T00:54:55.729Z,100
2022-11-12T00:55:55.733Z,100
2022-11-12T00:56:55.737Z,100
2022-11-12T00:57:55.738Z,100
2022-11-12T00:58:55.743Z,100
2022-11-12T00:59:55.736Z,100
2022-11-12T01:00:55.812Z,100
2022-11-12T01:01:55.734Z,100
2022-11-12T01:02:55.740Z,100
2022-11-12T01:03:55.827Z,100
2022-11-12T01:04:55.738Z,100
2022-11-12T01:06:55.788Z,100
2022-11-12T01:08:55.736Z,100
2022-11-12T01:09:55.738Z,100
2022-11-12T01:10:55.763Z,100
2022-11-12T01:11:55.759Z,100
2022-11-12T01:13:55.741Z,100
2022-11-12T01:14:55.742Z,100
2022-11-12T01:15:55.740Z,100
2022-11-12T01:16:55.740Z,100
2022-11-12T01:17:55.740Z,100
2022-11-12T01:18:55.738Z,100
2022-11-12T01:19:55.742Z,100
2022-11-12T01:20:55.730Z,100
2022-11-12T01:21:55.737Z,100
2022-11-12T01:22:55.731Z,100
2022-11-12T01:23:55.847Z,100
2022-11-12T01:24:55.740Z,100
2022-11-12T01:25:55.732Z,100
2022-11-12T01:26:55.798Z,100
2022-11-12T01:27:55.732Z,100
2022-11-12T01:29:55.739Z,100
2022-11-12T01:30:55.739Z,100
2022-11-12T01:31:55.733Z,100
2022-11-12T01:32:55.738Z,100
2022-11-12T01:33:55.746Z,100
2022-11-12T01:34:55.742Z,100
2022-11-12T01:35:55.734Z,100
2022-11-12T01:36:55.736Z,100
2022-11-12T01:37:55.736Z,100
2022-11-12T01:38:55.732Z,100
2022-11-12T01:40:55.732Z,100
2022-11-12T01:41:55.741Z,100
2022-11-12T01:42:55.733Z,100
2022-11-12T01:43:55.738Z,100
2022-11-12T01:44:55.733Z,100
2022-11-12T01:45:55.733Z,100
2022-11-12T01:46:55.739Z,100
2022-11-12T01:47:55.728Z,100
2022-11-12T01:48:55.738Z,100
2022-11-12T01:49:57.267Z,100
2022-11-12T01:50:55.737Z,100
2022-11-12T01:52:55.736Z,100
2022-11-12T01:53:55.762Z,100
2022-11-12T01:54:55.854Z,100
2022-11-12T01:55:55.744Z,100
2022-11-12T01:56:55.754Z,100
2022-11-12T01:57:55.734Z,100
2022-11-12T01:58:55.730Z,100
2022-11-12T01:59:55.734Z,100
2022-11-12T02:01:55.731Z,100
2022-11-12T02:02:55.734Z,100
2022-11-12T02:03:55.732Z,100
2022-11-12T02:04:55.738Z,100
2022-11-12T02:05:55.740Z,100
2022-11-12T02:06:55.780Z,100
2022-11-12T02:07:55.735Z,100
2022-11-12T02:08:55.737Z,100
2022-11-12T02:09:55.733Z,100
2022-11-12T02:11:55.744Z,100
2022-11-12T02:12:55.734Z,100
2022-11-12T02:13:55.727Z,100
2022-11-12T02:14:55.735Z,100
2022-11-12T02:15:55.731Z,100
2022-11-12T02:16:55.732Z,100
2022-11-12T02:17:55.740Z,100
2022-11-12T02:18:55.728Z,100
2022-11-12T02:19:55.731Z,100
2022-11-12T02:20:55.734Z,100
2022-11-12T02:21:55.734Z,100
2022-11-12T02:22:55.737Z,100
2022-11-12T02:23:55.739Z,100
2022-11-12T02:24:55.734Z,100
2022-11-12T02:25:55.845Z,100
2022-11-12T02:26:55.734Z,100
2022-11-12T02:27:55.736Z,100
2022-11-12T02:28:55.736Z,100
2022-11-12T02:29:55.733Z,100
2022-11-12T02:31:55.725Z,100
2022-11-12T02:32:55.734Z,100
2022-11-12T02:33:55.968Z,100
2022-11-12T02:35:55.729Z,100
2022-11-12T02:36:55.735Z,100
2022-11-12T02:37:55.730Z,100
2022-11-12T02:38:55.735Z,100
2022-11-12T02:39:55.742Z,100
2022-11-12T02:40:55.737Z,100
2022-11-12T02:41:55.734Z,100
2022-11-12T02:43:55.734Z,100
2022-11-12T02:44:55.737Z,100
2022-11-12T02:45:55.742Z,100
2022-11-12T02:46:55.725Z,100
2022-11-12T02:47:55.730Z,100
2022-11-12T02:48:55.732Z,100
2022-11-12T02:49:55.731Z,100
2022-11-12T02:50:55.736Z,100
2022-11-12T02:51:55.736Z,100
2022-11-12T02:52:55.730Z,100
2022-11-12T02:53:55.725Z,100
2022-11-12T02:54:55.736Z,100
2022-11-12T02:55:55.792Z,100
2022-11-12T02:56:55.872Z,100
2022-11-12T02:58:55.732Z,100
2022-11-12T02:59:55.730Z,100
2022-11-12T03:00:55.827Z,100
2022-11-12T03:01:55.728Z,100
2022-11-12T03:02:55.728Z,100
2022-11-12T03:04:55.735Z,100
2022-11-12T03:06:55.835Z,100
2022-11-12T03:09:55.728Z,100
2022-11-12T03:10:55.726Z,100
2022-11-12T03:11:55.741Z,100
2022-11-12T03:13:55.727Z,100
2022-11-12T03:14:55.728Z,100
2022-11-12T03:15:55.734Z,100
2022-11-12T03:16:55.734Z,100
2022-11-12T03:17:55.727Z,100
2022-11-12T03:18:55.735Z,100
2022-11-12T03:19:55.730Z,100
2022-11-12T03:20:55.731Z,100
2022-11-12T03:21:55.733Z,100
2022-11-12T03:22:55.739Z,100
2022-11-12T03:23:55.734Z,100
2022-11-12T03:24:55.738Z,100
2022-11-12T03:25:55.737Z,100
2022-11-12T03:26:55.739Z,100
2022-11-12T03:27:55.865Z,100
2022-11-12T03:29:55.794Z,100
2022-11-12T03:30:55.734Z,100
2022-11-12T03:31:55.733Z,100
2022-11-12T03:32:55.744Z,100
2022-11-12T03:33:55.741Z,100
2022-11-12T03:34:55.882Z,100
2022-11-12T03:35:55.731Z,100
2022-11-12T03:37:55.736Z,100
2022-11-12T03:38:55.736Z,100
2022-11-12T03:39:55.737Z,100
2022-11-12T03:40:55.738Z,100
2022-11-12T03:41:55.727Z,100
2022-11-12T03:42:55.759Z,100
2022-11-12T03:43:55.739Z,100
2022-11-12T03:44:55.739Z,100
2022-11-12T03:45:55.732Z,100
2022-11-12T03:46:55.740Z,100
2022-11-12T03:47:55.733Z,100
2022-11-12T03:48:55.729Z,100
2022-11-12T03:49:55.732Z,100
2022-11-12T03:50:56.131Z,100
2022-11-12T03:52:55.739Z,100
2022-11-12T03:53:55.731Z,100
2022-11-12T03:54:55.732Z,100
2022-11-12T03:55:55.755Z,100
2022-11-12T03:56:55.733Z,100
2022-11-12T03:57:55.746Z,100
2022-11-12T03:58:55.857Z,100
2022-11-12T03:59:55.733Z,100
2022-11-12T04:00:55.795Z,100
2022-11-12T04:01:55.730Z,100
2022-11-12T04:02:55.730Z,100
2022-11-12T04:03:55.728Z,100
2022-11-12T04:04:55.737Z,100
2022-11-12T04:05:55.733Z,100
2022-11-12T04:06:55.778Z,100
2022-11-12T04:07:55.727Z,100
2022-11-12T04:08:55.734Z,100
2022-11-12T04:09:55.735Z,100
2022-11-12T04:14:55.738Z,100
2022-11-12T04:16:06.015Z,100
2022-11-12T04:17:06.014Z,100
2022-11-12T04:18:06.024Z,100
2022-11-12T04:18:55.734Z,100
2022-11-12T04:19:55.734Z,100
2022-11-12T04:20:55.729Z,100
2022-11-12T04:21:55.791Z,100
2022-11-12T04:22:55.731Z,100
2022-11-12T04:23:55.728Z,100
2022-11-12T04:24:55.730Z,100
2022-11-12T04:25:55.734Z,100
2022-11-12T04:26:55.728Z,100
2022-11-12T04:27:55.735Z,100
2022-11-12T04:28:55.797Z,100
2022-11-12T04:29:55.872Z,100
2022-11-12T04:31:55.741Z,100
2022-11-12T04:32:55.729Z,100
2022-11-12T04:33:55.744Z,100
2022-11-12T04:34:55.883Z,100
2022-11-12T04:35:55.742Z,100
2022-11-12T04:36:55.731Z,100
2022-11-12T04:37:55.726Z,100
2022-11-12T04:38:55.734Z,100
2022-11-12T04:39:55.732Z,100
2022-11-12T04:40:55.741Z,100
2022-11-12T04:41:55.734Z,100
2022-11-12T04:42:55.730Z,100
2022-11-12T04:43:55.727Z,100
2022-11-12T04:44:55.733Z,100
2022-11-12T04:45:55.728Z,100
2022-11-12T04:46:55.736Z,100
2022-11-12T04:47:55.738Z,100
2022-11-12T04:48:55.735Z,100
2022-11-12T04:49:55.731Z,100
2022-11-12T04:51:55.735Z,100
2022-11-12T04:52:55.733Z,100
2022-11-12T04:53:55.743Z,100
2022-11-12T04:54:55.734Z,100
2022-11-12T04:55:55.758Z,100
2022-11-12T04:56:55.735Z,100
2022-11-12T04:58:00.313Z,100
2022-11-12T04:58:55.744Z,100
2022-11-12T04:59:55.735Z,100
2022-11-12T05:00:56.041Z,100
2022-11-12T05:01:55.737Z,100
2022-11-12T05:02:55.733Z,100
2022-11-12T05:04:55.738Z,100
2022-11-12T05:05:55.731Z,100
2022-11-12T05:06:55.795Z,100
2022-11-12T05:07:55.730Z,100
2022-11-12T05:08:55.743Z,100
2022-11-12T05:09:55.732Z,100
2022-11-12T05:10:55.742Z,100
2022-11-12T05:11:55.740Z,100
2022-11-12T05:13:55.736Z,100
2022-11-12T05:14:55.750Z,100
2022-11-12T05:15:55.738Z,100
2022-11-12T05:16:55.730Z,100
2022-11-12T05:17:55.742Z,100
2022-11-12T05:18:55.737Z,100
2022-11-12T05:19:55.731Z,100
2022-11-12T05:20:55.734Z,100
2022-11-12T05:21:55.732Z,100
2022-11-12T05:23:06.108Z,100
2022-11-12T05:23:55.722Z,100
2022-11-12T05:25:55.733Z,100
2022-11-12T05:26:55.758Z,100
2022-11-12T05:27:55.729Z,100
2022-11-12T05:28:55.728Z,100
2022-11-12T05:29:55.747Z,100
2022-11-12T05:30:55.724Z,100
2022-11-12T05:31:55.850Z,100
2022-11-12T05:32:55.731Z,100
2022-11-12T05:34:55.733Z,100
2022-11-12T05:35:55.738Z,100
2022-11-12T05:36:55.728Z,100
2022-11-12T05:37:55.723Z,100
2022-11-12T05:38:55.728Z,100
2022-11-12T05:39:55.725Z,100
2022-11-12T05:40:55.727Z,100
2022-11-12T05:42:12.401Z,100
2022-11-12T05:42:55.737Z,100
2022-11-12T05:43:55.736Z,100
2022-11-12T05:44:55.731Z,100
2022-11-12T05:45:55.732Z,100
2022-11-12T05:46:55.723Z,100
2022-11-12T05:47:55.771Z,100
2022-11-12T05:48:55.733Z,100
2022-11-12T05:52:55.731Z,100
2022-11-12T05:53:55.727Z,100
2022-11-12T05:54:55.753Z,100
2022-11-12T05:55:55.754Z,100
2022-11-12T05:56:55.760Z,100
2022-11-12T05:57:55.723Z,100
2022-11-12T05:58:55.723Z,100
2022-11-12T05:59:55.740Z,100
2022-11-12T06:00:55.734Z,100
2022-11-12T06:01:55.730Z,100
2022-11-12T06:02:55.883Z,100
2022-11-12T06:03:55.737Z,100
2022-11-12T06:04:55.738Z,100
2022-11-12T06:05:55.726Z,100
2022-11-12T06:06:55.795Z,100
2022-11-12T06:07:55.726Z,100
2022-11-12T06:08:55.728Z,100
2022-11-12T06:09:55.728Z,100
2022-11-12T06:10:55.769Z,100
2022-11-12T06:11:55.760Z,100
2022-11-12T06:12:55.725Z,100
2022-11-12T06:13:55.720Z,100
2022-11-12T06:14:55.740Z,100
2022-11-12T06:15:55.748Z,100
2022-11-12T06:16:55.732Z,100
2022-11-12T06:17:55.728Z,100
2022-11-12T06:18:55.731Z,100
2022-11-12T06:19:55.736Z,100
2022-11-12T06:20:55.725Z,100
2022-11-12T06:21:55.752Z,100
2022-11-12T06:22:55.732Z,100
2022-11-12T06:24:55.736Z,100
2022-11-12T06:25:55.732Z,100
2022-11-12T06:26:55.725Z,100
2022-11-12T06:27:55.792Z,100
2022-11-12T06:28:55.725Z,100
2022-11-12T06:29:55.734Z,100
2022-11-12T06:31:55.721Z,100
2022-11-12T06:32:55.735Z,100
2022-11-12T06:33:55.851Z,100
2022-11-12T06:34:55.737Z,100
2022-11-12T06:35:55.727Z,100
2022-11-12T06:36:55.724Z,100
2022-11-12T06:37:55.737Z,100
2022-11-12T06:38:55.722Z,100
2022-11-12T06:39:55.729Z,100
2022-11-12T06:40:55.733Z,100
2022-11-12T06:41:55.731Z,100
2022-11-12T06:42:55.745Z,100
2022-11-12T06:43:55.735Z,100
2022-11-12T06:44:55.749Z,100
2022-11-12T06:45:55.736Z,100
2022-11-12T06:46:55.723Z,100
2022-11-12T06:47:55.780Z,100
2022-11-12T06:48:55.737Z,100
2022-11-12T06:49:55.730Z,100
2022-11-12T06:50:55.724Z,100
2022-11-12T06:51:55.731Z,100
2022-11-12T06:52:55.814Z,100
2022-11-12T06:53:55.729Z,100
2022-11-12T06:54:55.730Z,100
2022-11-12T06:55:55.731Z,100
2022-11-12T06:56:55.730Z,100
2022-11-12T06:57:55.733Z,100
2022-11-12T06:58:55.730Z,100
2022-11-12T06:59:55.734Z,100
2022-11-12T07:00:55.726Z,100
2022-11-12T07:01:55.795Z,100
2022-11-12T07:02:55.805Z,100
2022-11-12T07:03:55.733Z,100
2022-11-12T07:04:55.894Z,100
2022-11-12T07:06:55.748Z,100
2022-11-12T07:07:55.750Z,100
2022-11-12T07:08:55.729Z,100
2022-11-12T07:09:55.777Z,100
2022-11-12T07:10:55.727Z,100
2022-11-12T07:11:56.114Z,100
2022-11-12T07:13:55.736Z,100
2022-11-12T07:14:55.735Z,100
2022-11-12T07:15:55.724Z,100
2022-11-12T07:16:55.734Z,100
2022-11-12T07:17:55.723Z,100
2022-11-12T07:18:55.745Z,100
2022-11-12T07:20:00.728Z,100
2022-11-12T07:20:55.724Z,100
2022-11-12T07:21:55.723Z,100
2022-11-12T07:22:55.737Z,100
2022-11-12T07:23:55.727Z,100
2022-11-12T07:25:55.732Z,100
2022-11-12T07:26:55.726Z,100
2022-11-12T07:27:55.722Z,100
2022-11-12T07:28:55.738Z,100
2022-11-12T07:29:55.726Z,100
2022-11-12T07:30:55.730Z,100
2022-11-12T07:31:55.729Z,100
2022-11-12T07:32:55.733Z,100
2022-11-12T07:33:55.724Z,100
2022-11-12T07:35:55.846Z,100
2022-11-12T07:36:55.735Z,100
2022-11-12T07:37:59.427Z,100
2022-11-12T07:38:55.726Z,100
2022-11-12T07:39:55.733Z,100
2022-11-12T07:40:55.726Z,100
2022-11-12T07:41:55.724Z,100
2022-11-12T07:42:55.731Z,100
2022-11-12T07:43:55.722Z,100
2022-11-12T07:44:55.757Z,100
2022-11-12T07:46:55.726Z,100
2022-11-12T07:47:55.733Z,100
2022-11-12T07:48:55.727Z,100
2022-11-12T07:49:55.723Z,100
2022-11-12T07:50:55.726Z,100
2022-11-12T07:52:55.729Z,100
2022-11-12T07:53:59.271Z,100
2022-11-12T07:54:55.726Z,100
2022-11-12T07:55:55.724Z,100
2022-11-12T07:56:55.723Z,100
2022-11-12T07:57:55.741Z,100
2022-11-12T07:58:55.734Z,100
2022-11-12T07:59:55.743Z,100
2022-11-12T08:00:55.750Z,100
2022-11-12T08:01:55.767Z,100
2022-11-12T08:02:55.750Z,100
2022-11-12T08:04:55.725Z,100
2022-11-12T08:05:55.723Z,100
2022-11-12T08:06:56.008Z,100
2022-11-12T08:07:55.867Z,100
2022-11-12T08:08:55.731Z,100
2022-11-12T08:09:55.731Z,100
2022-11-12T08:10:55.730Z,100
2022-11-12T08:11:55.733Z,100
2022-11-12T08:12:55.724Z,100
2022-11-12T08:13:55.724Z,100
2022-11-12T08:14:55.727Z,100
2022-11-12T08:15:55.732Z,100
2022-11-12T08:17:55.739Z,86.4
2022-11-12T08:18:55.727Z,81.7
2022-11-12T08:19:55.719Z,100
2022-11-12T08:20:55.730Z,94.7
2022-11-12T08:21:55.736Z,93.7
2022-11-12T08:22:55.787Z,91.9
2022-11-12T08:23:55.733Z,73
2022-11-12T08:24:55.730Z,77.1
2022-11-12T08:25:55.741Z,79.7
2022-11-12T08:26:55.731Z,82.8
2022-11-12T08:27:55.742Z,85.6
2022-11-12T08:28:55.738Z,87.7
2022-11-12T08:29:55.737Z,87
2022-11-12T08:30:55.730Z,89.5
2022-11-12T08:31:55.759Z,90.9
2022-11-12T08:32:55.733Z,91.1
2022-11-12T08:33:55.736Z,89.7
2022-11-12T08:34:55.738Z,90
2022-11-12T08:35:55.740Z,89.3
2022-11-12T08:36:55.738Z,91.5
2022-11-12T08:38:55.743Z,100
2022-11-12T08:39:55.732Z,100
2022-11-12T08:40:55.735Z,100
2022-11-12T08:41:55.737Z,100
2022-11-12T08:42:55.731Z,100
2022-11-12T08:43:55.737Z,100
2022-11-12T08:44:55.729Z,100
2022-11-12T08:45:55.725Z,99.1
2022-11-12T08:46:55.729Z,97.2
2022-11-12T08:47:55.738Z,95.9
2022-11-12T08:48:55.738Z,94.6
2022-11-12T08:49:55.732Z,91.6
2022-11-12T08:50:55.730Z,88
2022-11-12T08:51:55.731Z,84.6
2022-11-12T08:52:55.751Z,77.8
2022-11-12T08:53:55.727Z,74.8
2022-11-12T08:54:55.903Z,69.6
2022-11-12T08:55:55.739Z,64.1
2022-11-12T08:56:55.734Z,57.8
2022-11-12T08:57:55.740Z,54.9
2022-11-12T08:58:55.730Z,51.1
2022-11-12T08:59:55.745Z,51.1
2022-11-12T09:00:55.738Z,49.5
2022-11-12T09:01:55.795Z,50
2022-11-12T09:02:55.731Z,51.8
2022-11-12T09:03:55.731Z,51.9
2022-11-12T09:04:55.738Z,51.1
2022-11-12T09:06:55.796Z,46
2022-11-12T09:07:55.783Z,44.6
2022-11-12T09:08:55.898Z,42.8
2022-11-12T09:10:55.730Z,39.6
2022-11-12T09:11:55.737Z,38.2
2022-11-12T09:13:55.778Z,33.6
2022-11-12T09:14:59.551Z,34.4
2022-11-12T09:15:55.787Z,33
2022-11-12T09:16:55.738Z,32.2
2022-11-12T09:18:55.737Z,32
2022-11-12T09:19:55.734Z,31.8
2022-11-12T09:20:55.794Z,31.6
2022-11-12T09:21:55.750Z,32.9
2022-11-12T09:22:55.743Z,31.9
2022-11-12T09:23:55.756Z,32
2022-11-12T09:24:55.954Z,32.4
2022-11-12T09:25:55.734Z,31.6
2022-11-12T09:26:55.733Z,30.9
2022-11-12T09:27:55.762Z,30.4
2022-11-12T09:28:55.735Z,30.5
2022-11-12T09:29:55.739Z,30.7
2022-11-12T09:31:55.743Z,32.3
2022-11-12T09:32:55.738Z,34.1
2022-11-12T09:33:55.751Z,35.2
2022-11-12T09:34:56.039Z,36.1
2022-11-12T09:35:55.738Z,38.4
2022-11-12T09:36:55.741Z,41
2022-11-12T09:37:55.756Z,43.5
2022-11-12T09:38:55.744Z,45.8
2022-11-12T09:39:55.856Z,44.8
2022-11-12T09:40:55.744Z,42.3
2022-11-12T09:42:01.626Z,41.9
2022-11-12T09:42:55.747Z,42.3
2022-11-12T09:43:55.747Z,40.1
2022-11-12T09:44:55.745Z,39.3
2022-11-12T09:46:13.986Z,41.6
2022-11-12T09:46:55.755Z,38.9
2022-11-12T09:47:55.744Z,36.1
2022-11-12T09:49:55.754Z,36
2022-11-12T09:50:55.741Z,34.5
2022-11-12T09:52:55.751Z,33.7
2022-11-12T09:53:55.746Z,34.2
2022-11-12T09:54:55.751Z,32
2022-11-12T09:55:55.752Z,33.2
2022-11-12T09:56:55.755Z,31.2
2022-11-12T09:57:55.757Z,32.6
2022-11-12T09:58:55.744Z,33.5
2022-11-12T09:59:55.748Z,31.7
2022-11-12T10:00:55.752Z,30.4
2022-11-12T10:01:55.809Z,30.1
2022-11-12T10:02:55.766Z,29.9
2022-11-12T10:03:55.748Z,29.7
2022-11-12T10:04:55.751Z,30.6
2022-11-12T10:05:55.756Z,30.9
2022-11-12T10:06:55.797Z,29.3
2022-11-12T10:07:55.784Z,28.9
2022-11-12T10:08:55.753Z,28.8
2022-11-12T10:09:55.753Z,29.1
2022-11-12T10:10:55.870Z,28.5
2022-11-12T10:11:58.775Z,29.5
2022-11-12T10:12:55.757Z,30.1
2022-11-12T10:13:55.750Z,30.5
2022-11-12T10:14:55.755Z,29.3
2022-11-12T10:15:55.755Z,29.9
2022-11-12T10:16:55.759Z,30.7
2022-11-12T10:17:55.750Z,29.1
2022-11-12T10:18:55.759Z,28.6
2022-11-12T10:19:55.758Z,29.3
2022-11-12T10:20:55.758Z,30.3
2022-11-12T10:21:55.755Z,31.2
2022-11-12T10:22:55.763Z,30.3
2022-11-12T10:24:55.753Z,30.8
2022-11-12T10:25:55.756Z,30.6
2022-11-12T10:26:55.758Z,30.5
2022-11-12T10:27:55.752Z,29.4
2022-11-12T10:28:55.758Z,30.9
2022-11-12T10:29:55.755Z,31.8
2022-11-12T10:30:55.757Z,32.3
2022-11-12T10:31:55.756Z,30.9
2022-11-12T10:32:55.763Z,31.7
2022-11-12T10:34:55.818Z,33.4
2022-11-12T10:35:55.859Z,31.9
2022-11-12T10:36:55.757Z,32.6
2022-11-12T10:37:55.752Z,32.6
2022-11-12T10:38:55.757Z,33.2
2022-11-12T10:39:55.769Z,33.6
2022-11-12T10:40:55.760Z,32.7
2022-11-12T10:41:55.890Z,32.3
2022-11-12T10:42:55.754Z,31.9
2022-11-12T10:43:55.767Z,32.3
2022-11-12T10:44:55.764Z,33.5
2022-11-12T10:45:55.765Z,33.4
2022-11-12T10:46:55.780Z,33.6
2022-11-12T10:47:55.769Z,33.1
2022-11-12T10:48:55.767Z,33.6
2022-11-12T10:49:55.764Z,33.8
2022-11-12T10:50:55.767Z,32.5
2022-11-12T10:52:55.760Z,32.7
2022-11-12T10:53:55.771Z,31.7
2022-11-12T10:54:55.783Z,31.4
2022-11-12T10:55:55.783Z,32
2022-11-12T10:56:56.030Z,31.6
2022-11-12T10:57:55.762Z,32.3
2022-11-12T10:58:55.761Z,32.6
2022-11-12T10:59:55.767Z,31.4
2022-11-12T11:00:55.773Z,30.3
2022-11-12T11:01:55.795Z,41.8
2022-11-12T11:02:55.773Z,45.3
2022-11-12T11:03:55.765Z,46.9
2022-11-12T11:04:55.776Z,46.3
2022-11-12T11:06:55.780Z,40.2
2022-11-12T11:07:55.762Z,36.4
2022-11-12T11:08:55.766Z,36.9
2022-11-12T11:09:55.761Z,36.4
2022-11-12T11:10:55.769Z,39.8
2022-11-12T11:11:55.817Z,37.8
2022-11-12T11:13:56.126Z,42.8
2022-11-12T11:14:55.768Z,45.5
2022-11-12T11:15:55.774Z,44.4
2022-11-12T11:16:55.812Z,40.4
2022-11-12T11:17:55.767Z,38.3
2022-11-12T11:18:55.772Z,39.1
2022-11-12T11:19:55.786Z,40.5
2022-11-12T11:20:55.774Z,41.8
2022-11-12T11:22:55.775Z,40
2022-11-12T11:23:55.773Z,37.5
2022-11-12T11:24:55.770Z,35.7
2022-11-12T11:25:55.774Z,34.6
2022-11-12T11:26:55.777Z,39.9
2022-11-12T11:27:55.777Z,41.5
2022-11-12T11:28:55.778Z,46
2022-11-12T11:29:55.781Z,44.6
2022-11-12T11:31:55.784Z,41.6
2022-11-12T11:32:55.783Z,39
2022-11-12T11:33:55.771Z,37.5
2022-11-12T11:34:55.782Z,37.6
2022-11-12T11:35:55.782Z,36.2
2022-11-12T11:36:55.770Z,35.5
2022-11-12T11:37:58.419Z,36
2022-11-12T11:38:55.779Z,39.4
2022-11-12T11:39:55.788Z,38
2022-11-12T11:40:55.774Z,37.4
2022-11-12T11:41:55.944Z,36.3
2022-11-12T11:42:55.781Z,38.6
2022-11-12T11:43:55.941Z,38.1
2022-11-12T11:44:55.787Z,39.4
2022-11-12T11:45:55.780Z,37.2
2022-11-12T11:46:55.786Z,45
2022-11-12T11:48:01.597Z,47
2022-11-12T11:48:55.785Z,48.2
2022-11-12T11:49:55.781Z,46.3
2022-11-12T11:50:55.777Z,48.3
2022-11-12T11:52:55.787Z,47.6
2022-11-12T11:53:55.851Z,44.9
2022-11-12T11:54:55.786Z,46.2
2022-11-12T11:55:55.784Z,43.7
2022-11-12T11:56:55.787Z,38.8
2022-11-12T11:57:55.790Z,37.5
2022-11-12T11:58:55.784Z,37.1
2022-11-12T11:59:55.781Z,37.4
2022-11-12T12:00:55.788Z,38.1
2022-11-12T12:01:55.788Z,37.4
2022-11-12T12:02:55.782Z,36.2
2022-11-12T12:03:55.877Z,35.4
2022-11-12T12:04:55.788Z,37
2022-11-12T12:05:55.778Z,42.3
2022-11-12T12:06:55.860Z,42.5
2022-11-12T12:07:55.779Z,44.5
2022-11-12T12:08:55.788Z,43.5
2022-11-12T12:09:55.792Z,39.3
2022-11-12T12:11:11.248Z,39.1
2022-11-12T12:11:56.148Z,37.1
2022-11-12T12:13:55.810Z,36.1
2022-11-12T12:14:55.910Z,35.5
2022-11-12T12:15:55.788Z,35.4
2022-11-12T12:16:55.782Z,34.8
2022-11-12T12:17:55.783Z,34
2022-11-12T12:18:55.785Z,32.3
2022-11-12T12:19:55.792Z,32.4
2022-11-12T12:20:55.789Z,32.3
2022-11-12T12:21:55.784Z,32.6
2022-11-12T12:22:55.804Z,32.5
2022-11-12T12:23:55.796Z,32.4
2022-11-12T12:24:55.793Z,32.1
2022-11-12T12:26:00.053Z,32.1
2022-11-12T12:26:55.790Z,35
2022-11-12T12:27:55.788Z,42.5
2022-11-12T12:28:55.793Z,47.3
2022-11-12T12:29:55.802Z,48.2
2022-11-12T12:30:55.797Z,47.6
2022-11-12T12:31:55.798Z,46.6
2022-11-12T12:32:55.792Z,46.4
2022-11-12T12:34:55.806Z,43.7
2022-11-12T12:35:55.811Z,44.9
2022-11-12T12:36:55.797Z,46.5
2022-11-12T12:37:55.790Z,47.9
2022-11-12T12:38:55.810Z,49.4
2022-11-12T12:39:55.796Z,45.2
2022-11-12T12:40:55.798Z,41.5
2022-11-12T12:41:55.798Z,44.3
2022-11-12T12:42:55.793Z,44.7
2022-11-12T12:43:55.800Z,41.8
2022-11-12T12:44:55.794Z,48.4
2022-11-12T12:45:55.922Z,48.6
2022-11-12T12:46:55.795Z,44.7
2022-11-12T12:48:55.799Z,40.8
2022-11-12T12:49:55.800Z,38.3
2022-11-12T12:50:55.807Z,36.8
2022-11-12T12:51:56.167Z,35.9
2022-11-12T12:52:55.800Z,37.2
2022-11-12T12:53:55.803Z,37.8
2022-11-12T12:54:55.809Z,40.7
2022-11-12T12:55:55.801Z,37.5
2022-11-12T12:56:55.802Z,36.2
2022-11-12T12:57:55.798Z,34.2
2022-11-12T12:58:55.809Z,33
2022-11-12T12:59:55.809Z,32.9
2022-11-12T13:00:55.863Z,32.9
2022-11-12T13:01:55.806Z,33.7
2022-11-12T13:02:55.801Z,34
2022-11-12T13:03:55.804Z,34.1
2022-11-12T13:04:55.804Z,32.7
2022-11-12T13:05:55.809Z,33.2
2022-11-12T13:06:55.923Z,39.6
2022-11-12T13:07:55.809Z,39.2
2022-11-12T13:08:55.810Z,37.4
2022-11-12T13:09:55.809Z,35.7
2022-11-12T13:10:55.816Z,35.4
2022-11-12T13:13:55.807Z,36.2
2022-11-12T13:14:55.807Z,39.5
2022-11-12T13:15:55.841Z,44.3
2022-11-12T13:16:55.929Z,42.9
2022-11-12T13:17:55.814Z,42.9
2022-11-12T13:18:55.816Z,43.6
2022-11-12T13:19:55.811Z,45.3
2022-11-12T13:20:55.808Z,44
2022-11-12T13:21:55.803Z,41.4
2022-11-12T13:22:55.811Z,38.5
2022-11-12T13:23:55.808Z,41.5
2022-11-12T13:24:55.816Z,43.7
2022-11-12T13:25:55.816Z,45.9
2022-11-12T13:26:55.858Z,46.1
2022-11-12T13:27:55.814Z,45.9
2022-11-12T13:28:55.815Z,45.9
2022-11-12T13:29:55.832Z,41.3
2022-11-12T13:30:55.832Z,38.1
2022-11-12T13:31:55.820Z,35.9
2022-11-12T13:32:55.823Z,34.8
2022-11-12T13:34:55.816Z,38.1
2022-11-12T13:35:55.815Z,44.2
2022-11-12T13:36:55.818Z,45.7
2022-11-12T13:37:55.822Z,44.9
2022-11-12T13:39:00.101Z,44.1
2022-11-12T13:39:55.825Z,40.7
2022-11-12T13:40:55.817Z,37.8
2022-11-12T13:41:55.821Z,35.9
2022-11-12T13:42:55.816Z,35.2
2022-11-12T13:43:55.815Z,40.8
2022-11-12T13:44:56.317Z,40.4
2022-11-12T13:45:55.824Z,39.6
2022-11-12T13:46:55.838Z,42.8
2022-11-12T13:47:55.933Z,42.6
2022-11-12T13:48:55.815Z,44.1
2022-11-12T13:49:55.882Z,44.3
2022-11-12T13:50:55.817Z,41.5
2022-11-12T13:52:55.826Z,37.2
2022-11-12T13:53:55.825Z,34.7
2022-11-12T13:54:55.827Z,34.2
2022-11-12T13:55:55.828Z,33.8
2022-11-12T13:56:55.819Z,36.3
2022-11-12T13:57:55.824Z,37.8
2022-11-12T13:58:55.824Z,34.8
2022-11-12T13:59:55.833Z,37.9
2022-11-12T14:00:55.892Z,37.2
2022-11-12T14:01:55.825Z,35.7
2022-11-12T14:02:55.832Z,34.2
2022-11-12T14:03:55.814Z,33.5
2022-11-12T14:04:55.841Z,34.9
2022-11-12T14:05:55.828Z,35.9
2022-11-12T14:06:55.862Z,35.7
2022-11-12T14:07:55.827Z,34.4
2022-11-12T14:08:55.826Z,34.2
2022-11-12T14:09:55.839Z,34.6
2022-11-12T14:10:55.827Z,35.7
2022-11-12T14:13:55.826Z,37.8
2022-11-12T14:14:55.827Z,36.3
2022-11-12T14:15:55.827Z,36.2
2022-11-12T14:16:55.834Z,36.4
2022-11-12T14:17:55.835Z,36
2022-11-12T14:18:55.941Z,35.2
2022-11-12T14:20:55.833Z,37.2
2022-11-12T14:21:55.834Z,36.3
2022-11-12T14:22:55.875Z,36.2
2022-11-12T14:23:55.829Z,36.8
2022-11-12T14:24:55.829Z,36
2022-11-12T14:25:55.830Z,35.7
2022-11-12T14:26:55.833Z,36.3
2022-11-12T14:27:55.877Z,37.2
2022-11-12T14:28:55.838Z,38.8
2022-11-12T14:29:55.852Z,37.8
2022-11-12T14:30:55.837Z,39.3
2022-11-12T14:31:55.834Z,42
2022-11-12T14:32:55.833Z,44.6
2022-11-12T14:34:55.835Z,46.2
2022-11-12T14:35:55.835Z,46.3
2022-11-12T14:36:55.843Z,43.6
2022-11-12T14:37:55.881Z,42.9
2022-11-12T14:38:55.840Z,42.8
2022-11-12T14:39:55.834Z,44.9
2022-11-12T14:40:55.833Z,44.3
2022-11-12T14:41:55.833Z,47.1
2022-11-12T14:42:55.885Z,47.6
2022-11-12T14:44:11.409Z,48.8
2022-11-12T14:44:55.840Z,49.4
2022-11-12T14:45:55.846Z,49.6
2022-11-12T14:46:55.840Z,49.7
2022-11-12T14:47:55.890Z,52
2022-11-12T14:48:55.835Z,51.8
2022-11-12T14:49:55.965Z,52
2022-11-12T14:50:55.844Z,51